sensor_id;sensor_type;location;lat;lon;timestamp;P1;durP1;ratioP1;P2;durP2;ratioP2
11427;SDS011;5770;44.504;11.346;2023-04-24T00:01:50;5.72;;;3.17;;
11427;SDS011;5770;44.504;11.346;2023-04-24T00:04:18;6.10;;;3.15;;
11427;SDS011;5770;44.504;11.346;2023-04-24T00:06:44;3.78;;;3.35;;
11427;SDS011;5770;44.504;11.346;2023-04-24T00:09:14;5.68;;;2.90;;
11427;SDS011;5770;44.504;11.346;2023-04-24T00:11:42;4.00;;;2.78;;
11427;SDS011;5770;44.504;11.346;2023-04-24T00:14:08;6.57;;;3.63;;
11427;SDS011;5770;44.504;11.346;2023-04-24T00:16:36;5.25;;;3.30;;
11427;SDS011;5770;44.504;11.346;2023-04-24T00:19:04;5.47;;;3.30;;
11427;SDS011;5770;44.504;11.346;2023-04-24T00:21:32;4.55;;;2.90;;
11427;SDS011;5770;44.504;11.346;2023-04-24T00:23:59;7.32;;;3.10;;
11427;SDS011;5770;44.504;11.346;2023-04-24T00:26:26;6.13;;;3.10;;
11427;SDS011;5770;44.504;11.346;2023-04-24T00:28:53;6.57;;;3.17;;
11427;SDS011;5770;44.504;11.346;2023-04-24T00:31:21;5.75;;;3.28;;
11427;SDS011;5770;44.504;11.346;2023-04-24T00:33:48;3.65;;;2.80;;
11427;SDS011;5770;44.504;11.346;2023-04-24T00:36:16;4.50;;;3.08;;
11427;SDS011;5770;44.504;11.346;2023-04-24T00:38:44;10.55;;;3.00;;
11427;SDS011;5770;44.504;11.346;2023-04-24T00:41:11;7.35;;;3.40;;
11427;SDS011;5770;44.504;11.346;2023-04-24T00:43:39;7.57;;;3.50;;
11427;SDS011;5770;44.504;11.346;2023-04-24T00:46:06;3.75;;;2.80;;
11427;SDS011;5770;44.504;11.346;2023-04-24T00:48:33;6.20;;;3.17;;
11427;SDS011;5770;44.504;11.346;2023-04-24T00:51:01;5.03;;;2.80;;
11427;SDS011;5770;44.504;11.346;2023-04-24T00:53:29;3.92;;;2.80;;
11427;SDS011;5770;44.504;11.346;2023-04-24T00:55:57;3.42;;;2.97;;
11427;SDS011;5770;44.504;11.346;2023-04-24T00:58:25;6.30;;;2.97;;
11427;SDS011;5770;44.504;11.346;2023-04-24T01:00:53;8.50;;;3.78;;
11427;SDS011;5770;44.504;11.346;2023-04-24T01:03:23;3.70;;;2.95;;
11427;SDS011;5770;44.504;11.346;2023-04-24T01:05:51;6.55;;;3.10;;
11427;SDS011;5770;44.504;11.346;2023-04-24T01:08:19;8.80;;;3.13;;
11427;SDS011;5770;44.504;11.346;2023-04-24T01:10:50;5.65;;;3.53;;
11427;SDS011;5770;44.504;11.346;2023-04-24T01:13:18;5.85;;;2.97;;
11427;SDS011;5770;44.504;11.346;2023-04-24T01:15:45;4.75;;;3.00;;
11427;SDS011;5770;44.504;11.346;2023-04-24T01:18:16;5.38;;;2.88;;
11427;SDS011;5770;44.504;11.346;2023-04-24T01:20:43;5.47;;;3.13;;
11427;SDS011;5770;44.504;11.346;2023-04-24T01:23:13;4.45;;;3.00;;
11427;SDS011;5770;44.504;11.346;2023-04-24T01:25:40;12.23;;;3.58;;
11427;SDS011;5770;44.504;11.346;2023-04-24T01:28:07;7.15;;;3.05;;
11427;SDS011;5770;44.504;11.346;2023-04-24T01:30:35;4.22;;;3.10;;
11427;SDS011;5770;44.504;11.346;2023-04-24T01:33:02;7.03;;;3.30;;
11427;SDS011;5770;44.504;11.346;2023-04-24T01:35:29;5.30;;;3.03;;
11427;SDS011;5770;44.504;11.346;2023-04-24T01:37:56;4.15;;;3.25;;
11427;SDS011;5770;44.504;11.346;2023-04-24T01:40:27;3.78;;;3.15;;
11427;SDS011;5770;44.504;11.346;2023-04-24T01:42:55;4.90;;;2.80;;
11427;SDS011;5770;44.504;11.346;2023-04-24T01:45:22;5.78;;;3.22;;
11427;SDS011;5770;44.504;11.346;2023-04-24T01:47:50;4.47;;;2.80;;
11427;SDS011;5770;44.504;11.346;2023-04-24T01:50:17;4.40;;;2.90;;
11427;SDS011;5770;44.504;11.346;2023-04-24T01:52:44;5.35;;;3.58;;
11427;SDS011;5770;44.504;11.346;2023-04-24T01:55:11;5.32;;;3.40;;
11427;SDS011;5770;44.504;11.346;2023-04-24T01:57:40;5.80;;;3.30;;
11427;SDS011;5770;44.504;11.346;2023-04-24T02:00:07;3.75;;;2.90;;
11427;SDS011;5770;44.504;11.346;2023-04-24T02:02:37;6.07;;;3.55;;
11427;SDS011;5770;44.504;11.346;2023-04-24T02:05:05;5.18;;;3.10;;
11427;SDS011;5770;44.504;11.346;2023-04-24T02:07:33;5.75;;;3.05;;
11427;SDS011;5770;44.504;11.346;2023-04-24T02:10:00;4.78;;;2.97;;
11427;SDS011;5770;44.504;11.346;2023-04-24T02:12:32;4.78;;;2.95;;
11427;SDS011;5770;44.504;11.346;2023-04-24T02:15:01;5.10;;;3.42;;
11427;SDS011;5770;44.504;11.346;2023-04-24T02:17:28;6.32;;;2.80;;
11427;SDS011;5770;44.504;11.346;2023-04-24T02:19:55;5.32;;;3.03;;
11427;SDS011;5770;44.504;11.346;2023-04-24T02:22:23;7.15;;;3.40;;
11427;SDS011;5770;44.504;11.346;2023-04-24T02:24:50;5.88;;;3.00;;
11427;SDS011;5770;44.504;11.346;2023-04-24T02:27:18;4.63;;;3.00;;
11427;SDS011;5770;44.504;11.346;2023-04-24T02:29:45;5.47;;;3.22;;
11427;SDS011;5770;44.504;11.346;2023-04-24T02:32:14;3.63;;;2.75;;
11427;SDS011;5770;44.504;11.346;2023-04-24T02:34:41;5.15;;;3.05;;
11427;SDS011;5770;44.504;11.346;2023-04-24T02:37:08;4.32;;;2.97;;
11427;SDS011;5770;44.504;11.346;2023-04-24T02:39:35;6.43;;;2.80;;
11427;SDS011;5770;44.504;11.346;2023-04-24T02:42:03;8.90;;;3.38;;
11427;SDS011;5770;44.504;11.346;2023-04-24T02:44:30;6.00;;;2.72;;
11427;SDS011;5770;44.504;11.346;2023-04-24T02:46:57;8.70;;;3.03;;
11427;SDS011;5770;44.504;11.346;2023-04-24T02:49:26;5.53;;;2.97;;
11427;SDS011;5770;44.504;11.346;2023-04-24T02:51:53;5.43;;;2.97;;
11427;SDS011;5770;44.504;11.346;2023-04-24T02:54:20;6.57;;;3.17;;
11427;SDS011;5770;44.504;11.346;2023-04-24T02:56:48;4.72;;;3.35;;
11427;SDS011;5770;44.504;11.346;2023-04-24T02:59:15;4.18;;;2.80;;
11427;SDS011;5770;44.504;11.346;2023-04-24T03:01:42;7.22;;;3.47;;
11427;SDS011;5770;44.504;11.346;2023-04-24T03:04:09;4.82;;;3.28;;
11427;SDS011;5770;44.504;11.346;2023-04-24T03:06:38;6.45;;;3.75;;
11427;SDS011;5770;44.504;11.346;2023-04-24T03:09:05;5.93;;;3.08;;
11427;SDS011;5770;44.504;11.346;2023-04-24T03:11:33;8.63;;;3.17;;
11427;SDS011;5770;44.504;11.346;2023-04-24T03:14:00;6.38;;;3.47;;
11427;SDS011;5770;44.504;11.346;2023-04-24T03:16:27;6.78;;;3.70;;
11427;SDS011;5770;44.504;11.346;2023-04-24T03:18:54;10.98;;;3.35;;
11427;SDS011;5770;44.504;11.346;2023-04-24T03:21:22;8.30;;;3.83;;
11427;SDS011;5770;44.504;11.346;2023-04-24T03:23:50;5.63;;;3.47;;
11427;SDS011;5770;44.504;11.346;2023-04-24T03:26:18;7.07;;;3.35;;
11427;SDS011;5770;44.504;11.346;2023-04-24T03:28:45;8.85;;;3.65;;
11427;SDS011;5770;44.504;11.346;2023-04-24T03:31:12;6.10;;;3.38;;
11427;SDS011;5770;44.504;11.346;2023-04-24T03:33:40;5.22;;;3.30;;
11427;SDS011;5770;44.504;11.346;2023-04-24T03:36:07;9.48;;;3.28;;
11427;SDS011;5770;44.504;11.346;2023-04-24T03:38:35;6.75;;;3.35;;
11427;SDS011;5770;44.504;11.346;2023-04-24T03:41:03;5.63;;;3.20;;
11427;SDS011;5770;44.504;11.346;2023-04-24T03:43:31;4.50;;;2.95;;
11427;SDS011;5770;44.504;11.346;2023-04-24T03:45:58;4.82;;;2.92;;
11427;SDS011;5770;44.504;11.346;2023-04-24T03:48:25;7.78;;;3.13;;
11427;SDS011;5770;44.504;11.346;2023-04-24T03:50:52;6.97;;;3.03;;
11427;SDS011;5770;44.504;11.346;2023-04-24T03:53:19;6.10;;;3.40;;
11427;SDS011;5770;44.504;11.346;2023-04-24T03:55:47;7.63;;;3.50;;
11427;SDS011;5770;44.504;11.346;2023-04-24T03:58:15;5.15;;;3.00;;
11427;SDS011;5770;44.504;11.346;2023-04-24T04:00:42;7.00;;;3.17;;
11427;SDS011;5770;44.504;11.346;2023-04-24T04:03:11;7.20;;;2.90;;
11427;SDS011;5770;44.504;11.346;2023-04-24T04:05:39;6.43;;;2.72;;
11427;SDS011;5770;44.504;11.346;2023-04-24T04:08:06;7.15;;;3.60;;
11427;SDS011;5770;44.504;11.346;2023-04-24T04:10:33;6.53;;;3.28;;
11427;SDS011;5770;44.504;11.346;2023-04-24T04:13:01;5.32;;;3.22;;
11427;SDS011;5770;44.504;11.346;2023-04-24T04:15:29;7.63;;;3.72;;
11427;SDS011;5770;44.504;11.346;2023-04-24T04:17:56;5.78;;;4.40;;
11427;SDS011;5770;44.504;11.346;2023-04-24T04:20:24;8.13;;;4.68;;
11427;SDS011;5770;44.504;11.346;2023-04-24T04:22:51;6.30;;;4.10;;
11427;SDS011;5770;44.504;11.346;2023-04-24T04:25:18;5.07;;;4.45;;
11427;SDS011;5770;44.504;11.346;2023-04-24T04:27:46;8.55;;;4.88;;
11427;SDS011;5770;44.504;11.346;2023-04-24T04:30:14;4.85;;;4.40;;
11427;SDS011;5770;44.504;11.346;2023-04-24T04:32:42;8.35;;;5.38;;
11427;SDS011;5770;44.504;11.346;2023-04-24T04:35:09;5.32;;;4.82;;
11427;SDS011;5770;44.504;11.346;2023-04-24T04:37:36;12.90;;;5.63;;
11427;SDS011;5770;44.504;11.346;2023-04-24T04:40:05;8.30;;;5.03;;
11427;SDS011;5770;44.504;11.346;2023-04-24T04:42:36;5.38;;;4.88;;
11427;SDS011;5770;44.504;11.346;2023-04-24T04:45:05;7.97;;;5.78;;
11427;SDS011;5770;44.504;11.346;2023-04-24T04:47:34;7.78;;;5.30;;
11427;SDS011;5770;44.504;11.346;2023-04-24T04:50:06;5.97;;;5.38;;
11427;SDS011;5770;44.504;11.346;2023-04-24T04:52:33;8.45;;;5.72;;
11427;SDS011;5770;44.504;11.346;2023-04-24T04:55:00;9.18;;;5.35;;
11427;SDS011;5770;44.504;11.346;2023-04-24T04:57:31;9.65;;;5.60;;
11427;SDS011;5770;44.504;11.346;2023-04-24T04:59:58;7.72;;;5.15;;
11427;SDS011;5770;44.504;11.346;2023-04-24T05:02:25;13.13;;;4.95;;
11427;SDS011;5770;44.504;11.346;2023-04-24T05:04:53;7.30;;;5.80;;
11427;SDS011;5770;44.504;11.346;2023-04-24T05:07:22;6.75;;;4.57;;
11427;SDS011;5770;44.504;11.346;2023-04-24T05:09:49;7.82;;;5.00;;
11427;SDS011;5770;44.504;11.346;2023-04-24T05:12:17;7.03;;;5.00;;
11427;SDS011;5770;44.504;11.346;2023-04-24T05:14:44;7.68;;;5.18;;
11427;SDS011;5770;44.504;11.346;2023-04-24T05:17:12;11.43;;;5.60;;
11427;SDS011;5770;44.504;11.346;2023-04-24T05:19:38;11.00;;;5.57;;
11427;SDS011;5770;44.504;11.346;2023-04-24T05:22:08;8.50;;;5.57;;
11427;SDS011;5770;44.504;11.346;2023-04-24T05:24:37;6.70;;;4.90;;
11427;SDS011;5770;44.504;11.346;2023-04-24T05:27:05;11.32;;;6.05;;
11427;SDS011;5770;44.504;11.346;2023-04-24T05:29:32;6.40;;;5.55;;
11427;SDS011;5770;44.504;11.346;2023-04-24T05:32:00;7.95;;;6.18;;
11427;SDS011;5770;44.504;11.346;2023-04-24T05:34:27;10.05;;;6.00;;
11427;SDS011;5770;44.504;11.346;2023-04-24T05:36:54;11.18;;;5.28;;
11427;SDS011;5770;44.504;11.346;2023-04-24T05:39:22;9.80;;;5.63;;
11427;SDS011;5770;44.504;11.346;2023-04-24T05:41:51;8.60;;;5.93;;
11427;SDS011;5770;44.504;11.346;2023-04-24T05:44:18;9.35;;;6.30;;
11427;SDS011;5770;44.504;11.346;2023-04-24T05:46:45;8.05;;;6.03;;
11427;SDS011;5770;44.504;11.346;2023-04-24T05:49:15;9.55;;;6.28;;
11427;SDS011;5770;44.504;11.346;2023-04-24T05:51:42;9.05;;;6.20;;
11427;SDS011;5770;44.504;11.346;2023-04-24T05:54:09;8.40;;;6.45;;
11427;SDS011;5770;44.504;11.346;2023-04-24T05:56:37;7.65;;;6.53;;
11427;SDS011;5770;44.504;11.346;2023-04-24T05:59:05;11.70;;;7.07;;
11427;SDS011;5770;44.504;11.346;2023-04-24T06:01:34;11.07;;;7.45;;
11427;SDS011;5770;44.504;11.346;2023-04-24T06:04:02;13.38;;;7.10;;
11427;SDS011;5770;44.504;11.346;2023-04-24T06:06:30;9.85;;;7.47;;
11427;SDS011;5770;44.504;11.346;2023-04-24T06:09:01;11.57;;;8.07;;
11427;SDS011;5770;44.504;11.346;2023-04-24T06:11:30;10.82;;;8.13;;
11427;SDS011;5770;44.504;11.346;2023-04-24T06:13:58;14.13;;;8.70;;
11427;SDS011;5770;44.504;11.346;2023-04-24T06:16:27;11.23;;;8.45;;
11427;SDS011;5770;44.504;11.346;2023-04-24T06:18:55;13.70;;;8.90;;
11427;SDS011;5770;44.504;11.346;2023-04-24T06:21:24;15.95;;;9.02;;
11427;SDS011;5770;44.504;11.346;2023-04-24T06:23:54;14.70;;;9.75;;
11427;SDS011;5770;44.504;11.346;2023-04-24T06:26:22;12.18;;;9.18;;
11427;SDS011;5770;44.504;11.346;2023-04-24T06:28:50;14.00;;;10.57;;
11427;SDS011;5770;44.504;11.346;2023-04-24T06:31:20;13.55;;;9.95;;
11427;SDS011;5770;44.504;11.346;2023-04-24T06:33:51;13.25;;;9.95;;
11427;SDS011;5770;44.504;11.346;2023-04-24T06:36:19;15.95;;;10.88;;
11427;SDS011;5770;44.504;11.346;2023-04-24T06:38:48;18.30;;;11.70;;
11427;SDS011;5770;44.504;11.346;2023-04-24T06:41:16;11.98;;;10.30;;
11427;SDS011;5770;44.504;11.346;2023-04-24T06:43:43;11.80;;;10.60;;
11427;SDS011;5770;44.504;11.346;2023-04-24T06:46:11;11.50;;;10.40;;
11427;SDS011;5770;44.504;11.346;2023-04-24T06:48:39;16.40;;;11.13;;
11427;SDS011;5770;44.504;11.346;2023-04-24T06:51:10;11.82;;;10.60;;
11427;SDS011;5770;44.504;11.346;2023-04-24T06:53:40;12.20;;;10.90;;
11427;SDS011;5770;44.504;11.346;2023-04-24T06:56:08;13.82;;;10.20;;
11427;SDS011;5770;44.504;11.346;2023-04-24T06:58:39;14.05;;;11.27;;
11427;SDS011;5770;44.504;11.346;2023-04-24T07:01:06;16.33;;;10.95;;
11427;SDS011;5770;44.504;11.346;2023-04-24T07:03:33;12.73;;;10.48;;
11427;SDS011;5770;44.504;11.346;2023-04-24T07:06:00;13.68;;;10.10;;
11427;SDS011;5770;44.504;11.346;2023-04-24T07:08:29;14.15;;;10.88;;
11427;SDS011;5770;44.504;11.346;2023-04-24T07:10:58;14.35;;;11.45;;
11427;SDS011;5770;44.504;11.346;2023-04-24T07:13:27;15.50;;;10.02;;
11427;SDS011;5770;44.504;11.346;2023-04-24T07:15:55;12.95;;;10.48;;
11427;SDS011;5770;44.504;11.346;2023-04-24T07:18:28;16.27;;;11.00;;
11427;SDS011;5770;44.504;11.346;2023-04-24T07:20:58;14.85;;;10.48;;
11427;SDS011;5770;44.504;11.346;2023-04-24T07:23:26;14.32;;;10.20;;
11427;SDS011;5770;44.504;11.346;2023-04-24T07:25:59;13.70;;;9.48;;
11427;SDS011;5770;44.504;11.346;2023-04-24T07:28:29;12.15;;;8.85;;
11427;SDS011;5770;44.504;11.346;2023-04-24T07:30:57;9.68;;;8.43;;
11427;SDS011;5770;44.504;11.346;2023-04-24T07:33:25;12.73;;;8.45;;
11427;SDS011;5770;44.504;11.346;2023-04-24T07:35:52;8.63;;;7.72;;
11427;SDS011;5770;44.504;11.346;2023-04-24T07:38:19;8.25;;;6.70;;
11427;SDS011;5770;44.504;11.346;2023-04-24T07:40:47;7.78;;;6.80;;
11427;SDS011;5770;44.504;11.346;2023-04-24T07:43:16;9.48;;;7.40;;
11427;SDS011;5770;44.504;11.346;2023-04-24T07:45:43;10.32;;;7.90;;
11427;SDS011;5770;44.504;11.346;2023-04-24T07:48:10;7.70;;;6.90;;
11427;SDS011;5770;44.504;11.346;2023-04-24T07:50:39;8.40;;;6.93;;
11427;SDS011;5770;44.504;11.346;2023-04-24T07:53:07;12.82;;;6.80;;
11427;SDS011;5770;44.504;11.346;2023-04-24T07:55:33;11.38;;;8.10;;
11427;SDS011;5770;44.504;11.346;2023-04-24T07:58:00;9.18;;;7.60;;
11427;SDS011;5770;44.504;11.346;2023-04-24T08:00:29;15.68;;;8.02;;
11427;SDS011;5770;44.504;11.346;2023-04-24T08:02:56;11.00;;;7.65;;
11427;SDS011;5770;44.504;11.346;2023-04-24T08:05:23;14.52;;;6.72;;
11427;SDS011;5770;44.504;11.346;2023-04-24T08:07:53;10.75;;;6.88;;
11427;SDS011;5770;44.504;11.346;2023-04-24T08:10:21;8.68;;;6.60;;
11427;SDS011;5770;44.504;11.346;2023-04-24T08:12:48;9.60;;;6.28;;
11427;SDS011;5770;44.504;11.346;2023-04-24T08:15:15;13.27;;;6.57;;
11427;SDS011;5770;44.504;11.346;2023-04-24T08:17:44;12.75;;;5.40;;
11427;SDS011;5770;44.504;11.346;2023-04-24T08:20:11;6.68;;;4.93;;
11427;SDS011;5770;44.504;11.346;2023-04-24T08:22:39;5.40;;;4.80;;
11427;SDS011;5770;44.504;11.346;2023-04-24T08:25:09;5.32;;;4.82;;
11427;SDS011;5770;44.504;11.346;2023-04-24T08:27:37;8.95;;;4.80;;
11427;SDS011;5770;44.504;11.346;2023-04-24T08:30:06;9.13;;;4.80;;
11427;SDS011;5770;44.504;11.346;2023-04-24T08:32:34;5.68;;;4.50;;
11427;SDS011;5770;44.504;11.346;2023-04-24T08:35:03;6.00;;;4.18;;
11427;SDS011;5770;44.504;11.346;2023-04-24T08:37:30;8.40;;;4.55;;
11427;SDS011;5770;44.504;11.346;2023-04-24T08:40:00;7.13;;;4.28;;
11427;SDS011;5770;44.504;11.346;2023-04-24T08:42:28;6.85;;;4.72;;
11427;SDS011;5770;44.504;11.346;2023-04-24T08:44:57;7.25;;;5.78;;
11427;SDS011;5770;44.504;11.346;2023-04-24T08:47:24;9.88;;;6.22;;
11427;SDS011;5770;44.504;11.346;2023-04-24T08:49:53;10.63;;;7.25;;
11427;SDS011;5770;44.504;11.346;2023-04-24T08:52:23;8.07;;;6.15;;
11427;SDS011;5770;44.504;11.346;2023-04-24T08:54:53;12.52;;;7.13;;
11427;SDS011;5770;44.504;11.346;2023-04-24T08:57:20;13.57;;;8.63;;
11427;SDS011;5770;44.504;11.346;2023-04-24T08:59:48;15.02;;;10.90;;
11427;SDS011;5770;44.504;11.346;2023-04-24T09:02:16;11.10;;;7.82;;
11427;SDS011;5770;44.504;11.346;2023-04-24T09:04:43;8.07;;;6.78;;
11427;SDS011;5770;44.504;11.346;2023-04-24T09:07:11;7.50;;;6.45;;
11427;SDS011;5770;44.504;11.346;2023-04-24T09:09:42;7.25;;;6.32;;
11427;SDS011;5770;44.504;11.346;2023-04-24T09:12:09;7.53;;;5.90;;
11427;SDS011;5770;44.504;11.346;2023-04-24T09:14:36;5.63;;;4.88;;
11427;SDS011;5770;44.504;11.346;2023-04-24T09:17:07;5.97;;;4.88;;
11427;SDS011;5770;44.504;11.346;2023-04-24T09:19:34;8.85;;;5.07;;
11427;SDS011;5770;44.504;11.346;2023-04-24T09:22:04;5.90;;;4.82;;
11427;SDS011;5770;44.504;11.346;2023-04-24T09:24:33;10.05;;;7.22;;
11427;SDS011;5770;44.504;11.346;2023-04-24T09:27:02;8.18;;;7.38;;
11427;SDS011;5770;44.504;11.346;2023-04-24T09:29:29;8.70;;;7.80;;
11427;SDS011;5770;44.504;11.346;2023-04-24T09:31:58;8.57;;;7.50;;
11427;SDS011;5770;44.504;11.346;2023-04-24T09:34:25;6.53;;;5.90;;
11427;SDS011;5770;44.504;11.346;2023-04-24T09:36:53;6.50;;;5.80;;
11427;SDS011;5770;44.504;11.346;2023-04-24T09:39:20;6.45;;;5.85;;
11427;SDS011;5770;44.504;11.346;2023-04-24T09:41:48;6.60;;;5.88;;
11427;SDS011;5770;44.504;11.346;2023-04-24T09:44:20;6.85;;;5.40;;
11427;SDS011;5770;44.504;11.346;2023-04-24T09:46:49;5.60;;;4.43;;
11427;SDS011;5770;44.504;11.346;2023-04-24T09:49:19;4.40;;;3.30;;
11427;SDS011;5770;44.504;11.346;2023-04-24T09:51:47;6.03;;;3.22;;
11427;SDS011;5770;44.504;11.346;2023-04-24T09:54:15;3.55;;;2.80;;
11427;SDS011;5770;44.504;11.346;2023-04-24T09:56:43;5.47;;;2.60;;
11427;SDS011;5770;44.504;11.346;2023-04-24T09:59:13;6.43;;;2.72;;
11427;SDS011;5770;44.504;11.346;2023-04-24T10:01:42;5.82;;;2.70;;
11427;SDS011;5770;44.504;11.346;2023-04-24T10:04:16;2.63;;;2.17;;
11427;SDS011;5770;44.504;11.346;2023-04-24T10:06:44;3.33;;;2.15;;
11427;SDS011;5770;44.504;11.346;2023-04-24T10:09:12;4.72;;;2.55;;
11427;SDS011;5770;44.504;11.346;2023-04-24T10:11:43;12.68;;;3.00;;
11427;SDS011;5770;44.504;11.346;2023-04-24T10:14:12;2.97;;;2.55;;
11427;SDS011;5770;44.504;11.346;2023-04-24T10:16:39;4.28;;;2.20;;
11427;SDS011;5770;44.504;11.346;2023-04-24T10:19:08;6.95;;;3.05;;
11427;SDS011;5770;44.504;11.346;2023-04-24T10:21:38;2.65;;;1.80;;
11427;SDS011;5770;44.504;11.346;2023-04-24T10:24:11;3.45;;;2.13;;
11427;SDS011;5770;44.504;11.346;2023-04-24T10:26:39;3.72;;;2.42;;
11427;SDS011;5770;44.504;11.346;2023-04-24T10:29:07;2.75;;;2.00;;
11427;SDS011;5770;44.504;11.346;2023-04-24T10:31:37;3.40;;;2.40;;
11427;SDS011;5770;44.504;11.346;2023-04-24T10:34:11;5.35;;;2.20;;
11427;SDS011;5770;44.504;11.346;2023-04-24T10:36:40;31.48;;;3.65;;
11427;SDS011;5770;44.504;11.346;2023-04-24T10:39:11;6.55;;;2.50;;
11427;SDS011;5770;44.504;11.346;2023-04-24T10:41:42;4.28;;;2.50;;
11427;SDS011;5770;44.504;11.346;2023-04-24T10:44:10;4.20;;;2.33;;
11427;SDS011;5770;44.504;11.346;2023-04-24T10:46:40;3.45;;;2.20;;
11427;SDS011;5770;44.504;11.346;2023-04-24T10:49:09;2.38;;;2.15;;
11427;SDS011;5770;44.504;11.346;2023-04-24T10:51:47;6.78;;;2.33;;
11427;SDS011;5770;44.504;11.346;2023-04-24T10:54:21;2.75;;;2.50;;
11427;SDS011;5770;44.504;11.346;2023-04-24T10:56:49;4.78;;;2.50;;
11427;SDS011;5770;44.504;11.346;2023-04-24T10:59:24;3.20;;;2.50;;
11427;SDS011;5770;44.504;11.346;2023-04-24T11:01:54;4.97;;;2.80;;
11427;SDS011;5770;44.504;11.346;2023-04-24T11:04:28;4.00;;;3.33;;
11427;SDS011;5770;44.504;11.346;2023-04-24T11:06:57;3.80;;;2.60;;
11427;SDS011;5770;44.504;11.346;2023-04-24T11:09:26;2.83;;;2.53;;
11427;SDS011;5770;44.504;11.346;2023-04-24T11:12:02;4.03;;;2.78;;
11427;SDS011;5770;44.504;11.346;2023-04-24T11:17:26;5.38;;;2.75;;
11427;SDS011;5770;44.504;11.346;2023-04-24T11:19:54;3.75;;;2.53;;
11427;SDS011;5770;44.504;11.346;2023-04-24T11:22:30;9.43;;;3.58;;
11427;SDS011;5770;44.504;11.346;2023-04-24T11:24:59;5.90;;;2.90;;
11427;SDS011;5770;44.504;11.346;2023-04-24T11:27:30;5.47;;;3.30;;
11427;SDS011;5770;44.504;11.346;2023-04-24T11:29:59;5.47;;;3.80;;
11427;SDS011;5770;44.504;11.346;2023-04-24T11:32:27;6.07;;;3.00;;
11427;SDS011;5770;44.504;11.346;2023-04-24T11:34:56;6.05;;;3.63;;
11427;SDS011;5770;44.504;11.346;2023-04-24T11:37:25;4.85;;;3.38;;
11427;SDS011;5770;44.504;11.346;2023-04-24T11:39:55;5.45;;;3.17;;
11427;SDS011;5770;44.504;11.346;2023-04-24T11:42:22;9.90;;;3.63;;
11427;SDS011;5770;44.504;11.346;2023-04-24T11:44:51;7.18;;;4.30;;
11427;SDS011;5770;44.504;11.346;2023-04-24T11:47:19;5.90;;;3.58;;
11427;SDS011;5770;44.504;11.346;2023-04-24T11:49:49;3.65;;;3.00;;
11427;SDS011;5770;44.504;11.346;2023-04-24T11:52:19;5.65;;;2.90;;
11427;SDS011;5770;44.504;11.346;2023-04-24T11:54:49;6.88;;;3.28;;
11427;SDS011;5770;44.504;11.346;2023-04-24T11:57:20;26.08;;;6.32;;
11427;SDS011;5770;44.504;11.346;2023-04-24T11:59:47;5.93;;;3.13;;
11427;SDS011;5770;44.504;11.346;2023-04-24T12:02:21;4.82;;;3.15;;
11427;SDS011;5770;44.504;11.346;2023-04-24T12:04:49;6.15;;;3.58;;
11427;SDS011;5770;44.504;11.346;2023-04-24T12:07:16;4.57;;;3.00;;
11427;SDS011;5770;44.504;11.346;2023-04-24T12:09:43;5.15;;;3.70;;
11427;SDS011;5770;44.504;11.346;2023-04-24T12:12:11;6.97;;;3.88;;
11427;SDS011;5770;44.504;11.346;2023-04-24T12:14:44;6.47;;;3.88;;
11427;SDS011;5770;44.504;11.346;2023-04-24T12:17:13;5.70;;;3.33;;
11427;SDS011;5770;44.504;11.346;2023-04-24T12:19:44;5.40;;;3.17;;
11427;SDS011;5770;44.504;11.346;2023-04-24T12:22:12;5.40;;;3.00;;
11427;SDS011;5770;44.504;11.346;2023-04-24T12:27:25;7.30;;;4.32;;
11427;SDS011;5770;44.504;11.346;2023-04-24T12:29:55;4.97;;;3.58;;
11427;SDS011;5770;44.504;11.346;2023-04-24T12:32:22;5.80;;;3.35;;
11427;SDS011;5770;44.504;11.346;2023-04-24T12:34:50;6.13;;;2.95;;
11427;SDS011;5770;44.504;11.346;2023-04-24T12:37:17;6.30;;;3.15;;
11427;SDS011;5770;44.504;11.346;2023-04-24T12:39:57;5.50;;;2.70;;
11427;SDS011;5770;44.504;11.346;2023-04-24T12:42:25;4.20;;;2.60;;
11427;SDS011;5770;44.504;11.346;2023-04-24T12:44:57;6.55;;;2.70;;
11427;SDS011;5770;44.504;11.346;2023-04-24T12:47:25;3.03;;;2.30;;
11427;SDS011;5770;44.504;11.346;2023-04-24T12:49:52;4.05;;;2.70;;
11427;SDS011;5770;44.504;11.346;2023-04-24T12:52:20;3.15;;;2.65;;
11427;SDS011;5770;44.504;11.346;2023-04-24T12:54:48;8.23;;;4.78;;
11427;SDS011;5770;44.504;11.346;2023-04-24T12:57:15;5.65;;;3.10;;
11427;SDS011;5770;44.504;11.346;2023-04-24T12:59:43;6.32;;;3.20;;
11427;SDS011;5770;44.504;11.346;2023-04-24T13:02:11;3.83;;;2.97;;
11427;SDS011;5770;44.504;11.346;2023-04-24T13:04:39;7.18;;;3.00;;
11427;SDS011;5770;44.504;11.346;2023-04-24T13:07:06;4.65;;;2.75;;
11427;SDS011;5770;44.504;11.346;2023-04-24T13:09:33;4.13;;;2.83;;
11427;SDS011;5770;44.504;11.346;2023-04-24T13:12:01;3.30;;;2.70;;
11427;SDS011;5770;44.504;11.346;2023-04-24T13:14:28;2.88;;;2.53;;
11427;SDS011;5770;44.504;11.346;2023-04-24T13:16:55;3.67;;;2.67;;
11427;SDS011;5770;44.504;11.346;2023-04-24T13:19:25;4.75;;;2.85;;
11427;SDS011;5770;44.504;11.346;2023-04-24T13:21:52;3.40;;;2.42;;
11427;SDS011;5770;44.504;11.346;2023-04-24T13:24:20;4.18;;;2.88;;
11427;SDS011;5770;44.504;11.346;2023-04-24T13:26:49;3.47;;;3.17;;
11427;SDS011;5770;44.504;11.346;2023-04-24T13:29:16;4.70;;;3.67;;
11427;SDS011;5770;44.504;11.346;2023-04-24T13:31:44;4.00;;;2.70;;
11427;SDS011;5770;44.504;11.346;2023-04-24T13:34:11;4.53;;;2.90;;
11427;SDS011;5770;44.504;11.346;2023-04-24T13:36:39;4.82;;;3.38;;
11427;SDS011;5770;44.504;11.346;2023-04-24T13:39:06;3.42;;;2.78;;
11427;SDS011;5770;44.504;11.346;2023-04-24T13:41:33;2.85;;;2.58;;
11427;SDS011;5770;44.504;11.346;2023-04-24T13:44:01;2.83;;;2.63;;
11427;SDS011;5770;44.504;11.346;2023-04-24T13:46:28;4.68;;;2.70;;
11427;SDS011;5770;44.504;11.346;2023-04-24T13:48:55;3.55;;;3.25;;
11427;SDS011;5770;44.504;11.346;2023-04-24T13:51:23;4.95;;;2.97;;
11427;SDS011;5770;44.504;11.346;2023-04-24T13:53:53;2.60;;;2.40;;
11427;SDS011;5770;44.504;11.346;2023-04-24T13:56:20;4.53;;;2.70;;
11427;SDS011;5770;44.504;11.346;2023-04-24T13:58:48;3.95;;;2.65;;
11427;SDS011;5770;44.504;11.346;2023-04-24T14:01:15;2.85;;;2.53;;
11427;SDS011;5770;44.504;11.346;2023-04-24T14:03:42;4.28;;;3.05;;
11427;SDS011;5770;44.504;11.346;2023-04-24T14:06:09;3.67;;;2.72;;
11427;SDS011;5770;44.504;11.346;2023-04-24T14:08:36;6.30;;;3.40;;
11427;SDS011;5770;44.504;11.346;2023-04-24T14:11:05;3.20;;;2.90;;
11427;SDS011;5770;44.504;11.346;2023-04-24T14:13:32;17.58;;;2.90;;
11427;SDS011;5770;44.504;11.346;2023-04-24T14:15:59;8.13;;;2.80;;
11427;SDS011;5770;44.504;11.346;2023-04-24T14:18:26;2.90;;;2.10;;
11427;SDS011;5770;44.504;11.346;2023-04-24T14:20:53;2.58;;;2.20;;
11427;SDS011;5770;44.504;11.346;2023-04-24T14:23:21;2.90;;;2.20;;
11427;SDS011;5770;44.504;11.346;2023-04-24T14:25:48;3.03;;;2.13;;
11427;SDS011;5770;44.504;11.346;2023-04-24T14:28:18;2.92;;;2.63;;
11427;SDS011;5770;44.504;11.346;2023-04-24T14:30:46;3.47;;;2.20;;
11427;SDS011;5770;44.504;11.346;2023-04-24T14:33:13;2.00;;;1.77;;
11427;SDS011;5770;44.504;11.346;2023-04-24T14:35:40;2.40;;;2.20;;
11427;SDS011;5770;44.504;11.346;2023-04-24T14:38:08;3.55;;;2.20;;
11427;SDS011;5770;44.504;11.346;2023-04-24T14:40:36;5.25;;;2.13;;
11427;SDS011;5770;44.504;11.346;2023-04-24T14:43:03;2.38;;;2.00;;
11427;SDS011;5770;44.504;11.346;2023-04-24T14:45:31;3.08;;;2.10;;
11427;SDS011;5770;44.504;11.346;2023-04-24T14:47:59;2.88;;;2.42;;
11427;SDS011;5770;44.504;11.346;2023-04-24T14:50:26;2.65;;;2.45;;
11427;SDS011;5770;44.504;11.346;2023-04-24T14:52:53;3.22;;;2.60;;
11427;SDS011;5770;44.504;11.346;2023-04-24T14:55:22;2.03;;;1.92;;
11427;SDS011;5770;44.504;11.346;2023-04-24T14:57:49;2.20;;;2.00;;